sensor_id;sensor_type;location;lat;lon;timestamp;temperature;humidity
12436;DHT22;6282;51.440;6.938;2023-02-15T00:01:34;4.20;99.90
12436;DHT22;6282;51.440;6.938;2023-02-15T00:04:02;4.50;99.90
12436;DHT22;6282;51.440;6.938;2023-02-15T00:06:28;4.30;99.90
12436;DHT22;6282;51.440;6.938;2023-02-15T00:08:57;4.40;99.90
12436;DHT22;6282;51.440;6.938;2023-02-15T00:11:24;4.50;99.90
12436;DHT22;6282;51.440;6.938;2023-02-15T00:14:20;4.50;99.90
12436;DHT22;6282;51.440;6.938;2023-02-15T00:16:53;4.30;99.90
12436;DHT22;6282;51.440;6.938;2023-02-15T00:19:21;4.20;99.90
12436;DHT22;6282;51.440;6.938;2023-02-15T00:21:48;4.40;99.90
12436;DHT22;6282;51.440;6.938;2023-02-15T00:24:16;4.20;99.90
12436;DHT22;6282;51.440;6.938;2023-02-15T00:26:44;4.00;99.90
12436;DHT22;6282;51.440;6.938;2023-02-15T00:29:13;4.10;99.90
12436;DHT22;6282;51.440;6.938;2023-02-15T00:31:41;4.00;99.90
12436;DHT22;6282;51.440;6.938;2023-02-15T00:34:12;4.00;99.90
12436;DHT22;6282;51.440;6.938;2023-02-15T00:36:39;4.20;99.90
12436;DHT22;6282;51.440;6.938;2023-02-15T00:39:06;4.20;99.90
12436;DHT22;6282;51.440;6.938;2023-02-15T00:41:33;3.90;99.90
12436;DHT22;6282;51.440;6.938;2023-02-15T00:44:00;4.10;99.90
12436;DHT22;6282;51.440;6.938;2023-02-15T00:46:27;3.80;99.90
12436;DHT22;6282;51.440;6.938;2023-02-15T00:48:56;3.70;99.90
12436;DHT22;6282;51.440;6.938;2023-02-15T00:51:23;3.60;99.90
12436;DHT22;6282;51.440;6.938;2023-02-15T00:53:50;3.90;99.90
12436;DHT22;6282;51.440;6.938;2023-02-15T00:56:17;4.20;99.90
12436;DHT22;6282;51.440;6.938;2023-02-15T00:58:44;3.60;99.90
12436;DHT22;6282;51.440;6.938;2023-02-15T01:01:13;3.50;99.90
12436;DHT22;6282;51.440;6.938;2023-02-15T01:03:41;3.70;99.90
12436;DHT22;6282;51.440;6.938;2023-02-15T01:06:10;3.70;99.90
12436;DHT22;6282;51.440;6.938;2023-02-15T01:08:37;3.70;99.90
12436;DHT22;6282;51.440;6.938;2023-02-15T01:11:05;4.10;99.90
12436;DHT22;6282;51.440;6.938;2023-02-15T01:13:32;3.70;99.90
12436;DHT22;6282;51.440;6.938;2023-02-15T01:15:58;3.30;99.90
12436;DHT22;6282;51.440;6.938;2023-02-15T01:18:25;3.30;99.90
12436;DHT22;6282;51.440;6.938;2023-02-15T01:20:53;3.50;99.90
12436;DHT22;6282;51.440;6.938;2023-02-15T01:23:21;3.40;99.90
12436;DHT22;6282;51.440;6.938;2023-02-15T01:25:48;3.60;99.90
12436;DHT22;6282;51.440;6.938;2023-02-15T01:28:15;4.10;99.90
12436;DHT22;6282;51.440;6.938;2023-02-15T01:30:42;4.00;99.90
12436;DHT22;6282;51.440;6.938;2023-02-15T01:33:09;3.80;99.90
12436;DHT22;6282;51.440;6.938;2023-02-15T01:35:43;3.60;99.90
12436;DHT22;6282;51.440;6.938;2023-02-15T01:38:11;3.80;99.90
12436;DHT22;6282;51.440;6.938;2023-02-15T01:40:39;3.70;99.90
12436;DHT22;6282;51.440;6.938;2023-02-15T01:43:09;3.50;99.90
12436;DHT22;6282;51.440;6.938;2023-02-15T01:45:37;3.50;99.90
12436;DHT22;6282;51.440;6.938;2023-02-15T01:48:08;3.80;99.90
12436;DHT22;6282;51.440;6.938;2023-02-15T01:50:42;4.20;99.90
12436;DHT22;6282;51.440;6.938;2023-02-15T01:53:15;4.00;99.90
12436;DHT22;6282;51.440;6.938;2023-02-15T01:55:48;3.50;99.90
12436;DHT22;6282;51.440;6.938;2023-02-15T01:58:16;3.60;99.90
12436;DHT22;6282;51.440;6.938;2023-02-15T02:00:44;3.20;99.90
12436;DHT22;6282;51.440;6.938;2023-02-15T02:03:12;3.50;99.90
12436;DHT22;6282;51.440;6.938;2023-02-15T02:05:39;3.60;99.90
12436;DHT22;6282;51.440;6.938;2023-02-15T02:08:07;3.40;99.90
12436;DHT22;6282;51.440;6.938;2023-02-15T02:10:35;3.20;99.90
12436;DHT22;6282;51.440;6.938;2023-02-15T02:13:05;2.90;99.90
12436;DHT22;6282;51.440;6.938;2023-02-15T02:15:39;3.20;99.90
12436;DHT22;6282;51.440;6.938;2023-02-15T02:18:20;3.50;99.90
12436;DHT22;6282;51.440;6.938;2023-02-15T02:21:06;3.90;99.90
12436;DHT22;6282;51.440;6.938;2023-02-15T02:23:58;3.70;99.90
12436;DHT22;6282;51.440;6.938;2023-02-15T02:26:55;3.30;99.90
12436;DHT22;6282;51.440;6.938;2023-02-15T02:32:52;3.80;99.90
12436;DHT22;6282;51.440;6.938;2023-02-15T02:35:29;3.30;99.90
12436;DHT22;6282;51.440;6.938;2023-02-15T02:38:04;3.20;99.90
12436;DHT22;6282;51.440;6.938;2023-02-15T02:40:42;3.30;99.90
12436;DHT22;6282;51.440;6.938;2023-02-15T02:43:19;3.30;99.90
12436;DHT22;6282;51.440;6.938;2023-02-15T02:45:52;3.00;99.90
12436;DHT22;6282;51.440;6.938;2023-02-15T02:48:25;4.10;99.90
12436;DHT22;6282;51.440;6.938;2023-02-15T02:50:54;3.30;99.90
12436;DHT22;6282;51.440;6.938;2023-02-15T02:53:20;3.20;99.90
12436;DHT22;6282;51.440;6.938;2023-02-15T02:55:49;3.60;99.90
12436;DHT22;6282;51.440;6.938;2023-02-15T02:58:21;3.50;99.90
12436;DHT22;6282;51.440;6.938;2023-02-15T03:00:53;2.70;99.90
12436;DHT22;6282;51.440;6.938;2023-02-15T03:03:25;2.90;99.90
12436;DHT22;6282;51.440;6.938;2023-02-15T03:05:55;2.70;99.90
12436;DHT22;6282;51.440;6.938;2023-02-15T03:08:26;2.70;99.90
12436;DHT22;6282;51.440;6.938;2023-02-15T03:10:58;2.70;99.90
12436;DHT22;6282;51.440;6.938;2023-02-15T03:13:26;2.80;99.90
12436;DHT22;6282;51.440;6.938;2023-02-15T03:15:54;2.80;99.90
12436;DHT22;6282;51.440;6.938;2023-02-15T03:18:44;2.90;99.90
12436;DHT22;6282;51.440;6.938;2023-02-15T03:21:19;3.40;99.90
12436;DHT22;6282;51.440;6.938;2023-02-15T03:23:51;2.70;99.90
12436;DHT22;6282;51.440;6.938;2023-02-15T03:26:20;2.90;99.90
12436;DHT22;6282;51.440;6.938;2023-02-15T03:31:18;2.70;99.90
12436;DHT22;6282;51.440;6.938;2023-02-15T03:33:51;2.80;99.90
12436;DHT22;6282;51.440;6.938;2023-02-15T03:36:21;3.10;99.90
12436;DHT22;6282;51.440;6.938;2023-02-15T03:41:19;3.00;99.90
12436;DHT22;6282;51.440;6.938;2023-02-15T03:43:53;3.00;99.90
12436;DHT22;6282;51.440;6.938;2023-02-15T03:46:26;3.00;99.90
12436;DHT22;6282;51.440;6.938;2023-02-15T03:48:58;3.30;99.90
12436;DHT22;6282;51.440;6.938;2023-02-15T03:51:32;3.00;99.90
12436;DHT22;6282;51.440;6.938;2023-02-15T03:53:59;2.80;99.90
12436;DHT22;6282;51.440;6.938;2023-02-15T03:56:28;2.50;99.90
12436;DHT22;6282;51.440;6.938;2023-02-15T04:01:40;4.00;99.90
12436;DHT22;6282;51.440;6.938;2023-02-15T04:04:33;2.80;99.90
12436;DHT22;6282;51.440;6.938;2023-02-15T04:07:01;2.80;99.90
12436;DHT22;6282;51.440;6.938;2023-02-15T04:12:13;2.60;99.90
12436;DHT22;6282;51.440;6.938;2023-02-15T04:14:40;2.50;99.90
12436;DHT22;6282;51.440;6.938;2023-02-15T04:17:24;2.50;99.90
12436;DHT22;6282;51.440;6.938;2023-02-15T04:19:53;2.80;99.90
12436;DHT22;6282;51.440;6.938;2023-02-15T04:27:51;2.40;99.90
12436;DHT22;6282;51.440;6.938;2023-02-15T04:30:20;2.60;99.90
12436;DHT22;6282;51.440;6.938;2023-02-15T04:32:47;3.00;99.90
12436;DHT22;6282;51.440;6.938;2023-02-15T04:35:16;3.10;99.90
12436;DHT22;6282;51.440;6.938;2023-02-15T04:37:43;2.90;99.90
12436;DHT22;6282;51.440;6.938;2023-02-15T04:40:12;2.80;99.90
12436;DHT22;6282;51.440;6.938;2023-02-15T04:42:40;3.10;99.90
12436;DHT22;6282;51.440;6.938;2023-02-15T04:45:07;2.40;99.90
12436;DHT22;6282;51.440;6.938;2023-02-15T04:47:34;2.00;99.90
12436;DHT22;6282;51.440;6.938;2023-02-15T04:54:56;2.50;99.90
12436;DHT22;6282;51.440;6.938;2023-02-15T04:57:23;2.90;99.90
12436;DHT22;6282;51.440;6.938;2023-02-15T04:59:50;2.80;99.90
12436;DHT22;6282;51.440;6.938;2023-02-15T05:02:17;2.40;99.90
12436;DHT22;6282;51.440;6.938;2023-02-15T05:07:11;2.60;99.90
12436;DHT22;6282;51.440;6.938;2023-02-15T05:09:39;3.00;99.90
12436;DHT22;6282;51.440;6.938;2023-02-15T05:12:06;2.70;99.90
12436;DHT22;6282;51.440;6.938;2023-02-15T05:14:33;2.80;99.90
12436;DHT22;6282;51.440;6.938;2023-02-15T05:17:00;2.70;99.90
12436;DHT22;6282;51.440;6.938;2023-02-15T05:19:29;2.60;99.90
12436;DHT22;6282;51.440;6.938;2023-02-15T05:27:11;2.90;99.90
12436;DHT22;6282;51.440;6.938;2023-02-15T05:29:55;2.40;99.90
12436;DHT22;6282;51.440;6.938;2023-02-15T05:32:22;2.60;99.90
12436;DHT22;6282;51.440;6.938;2023-02-15T05:39:43;2.50;99.90
12436;DHT22;6282;51.440;6.938;2023-02-15T05:42:11;2.50;99.90
12436;DHT22;6282;51.440;6.938;2023-02-15T05:44:38;2.20;99.90
12436;DHT22;6282;51.440;6.938;2023-02-15T05:49:33;2.60;99.90
12436;DHT22;6282;51.440;6.938;2023-02-15T05:54:27;2.20;99.90
12436;DHT22;6282;51.440;6.938;2023-02-15T05:59:23;2.70;99.90
12436;DHT22;6282;51.440;6.938;2023-02-15T06:04:17;2.30;99.90
12436;DHT22;6282;51.440;6.938;2023-02-15T06:06:43;3.00;99.90
12436;DHT22;6282;51.440;6.938;2023-02-15T06:09:10;3.30;99.90
12436;DHT22;6282;51.440;6.938;2023-02-15T06:11:38;2.50;99.90
12436;DHT22;6282;51.440;6.938;2023-02-15T06:14:04;2.60;99.90
12436;DHT22;6282;51.440;6.938;2023-02-15T06:16:33;2.60;99.90
12436;DHT22;6282;51.440;6.938;2023-02-15T06:18:59;2.40;99.90
12436;DHT22;6282;51.440;6.938;2023-02-15T06:23:54;3.00;99.90
12436;DHT22;6282;51.440;6.938;2023-02-15T06:26:21;2.90;99.90
12436;DHT22;6282;51.440;6.938;2023-02-15T06:28:48;3.20;99.90
12436;DHT22;6282;51.440;6.938;2023-02-15T06:33:43;2.40;99.90
12436;DHT22;6282;51.440;6.938;2023-02-15T06:36:10;2.50;99.90
12436;DHT22;6282;51.440;6.938;2023-02-15T06:38:38;2.80;99.90
12436;DHT22;6282;51.440;6.938;2023-02-15T06:41:04;2.70;99.90
12436;DHT22;6282;51.440;6.938;2023-02-15T06:43:31;2.70;99.90
12436;DHT22;6282;51.440;6.938;2023-02-15T06:48:26;2.60;99.90
12436;DHT22;6282;51.440;6.938;2023-02-15T06:50:54;2.80;99.90
12436;DHT22;6282;51.440;6.938;2023-02-15T06:55:48;3.40;99.90
12436;DHT22;6282;51.440;6.938;2023-02-15T06:58:15;3.10;99.90
12436;DHT22;6282;51.440;6.938;2023-02-15T07:00:42;2.90;99.90
12436;DHT22;6282;51.440;6.938;2023-02-15T07:03:09;2.70;99.90
12436;DHT22;6282;51.440;6.938;2023-02-15T07:05:36;2.80;99.90
12436;DHT22;6282;51.440;6.938;2023-02-15T07:08:04;2.70;99.90
12436;DHT22;6282;51.440;6.938;2023-02-15T07:10:31;2.50;99.90
12436;DHT22;6282;51.440;6.938;2023-02-15T07:15:24;3.30;99.90
12436;DHT22;6282;51.440;6.938;2023-02-15T07:17:50;3.20;99.90
12436;DHT22;6282;51.440;6.938;2023-02-15T07:20:19;3.20;99.90
12436;DHT22;6282;51.440;6.938;2023-02-15T07:25:15;3.00;99.90
12436;DHT22;6282;51.440;6.938;2023-02-15T07:27:42;3.30;99.90
12436;DHT22;6282;51.440;6.938;2023-02-15T07:30:12;3.40;99.90
12436;DHT22;6282;51.440;6.938;2023-02-15T07:35:26;3.30;99.90
12436;DHT22;6282;51.440;6.938;2023-02-15T07:37:54;3.30;99.90
12436;DHT22;6282;51.440;6.938;2023-02-15T07:40:22;3.20;99.90
12436;DHT22;6282;51.440;6.938;2023-02-15T07:42:49;3.40;99.90
12436;DHT22;6282;51.440;6.938;2023-02-15T07:45:18;3.40;99.90
12436;DHT22;6282;51.440;6.938;2023-02-15T07:47:45;4.10;99.90
12436;DHT22;6282;51.440;6.938;2023-02-15T07:57:35;4.20;99.90
12436;DHT22;6282;51.440;6.938;2023-02-15T08:00:03;4.40;99.90
12436;DHT22;6282;51.440;6.938;2023-02-15T08:04:57;4.60;99.90
12436;DHT22;6282;51.440;6.938;2023-02-15T08:09:51;4.30;99.90
12436;DHT22;6282;51.440;6.938;2023-02-15T08:14:47;4.80;99.90
12436;DHT22;6282;51.440;6.938;2023-02-15T08:22:12;5.20;99.90
12436;DHT22;6282;51.440;6.938;2023-02-15T08:24:40;5.30;99.90
12436;DHT22;6282;51.440;6.938;2023-02-15T08:27:08;5.30;99.90
12436;DHT22;6282;51.440;6.938;2023-02-15T08:29:37;5.50;99.90
12436;DHT22;6282;51.440;6.938;2023-02-15T08:32:07;5.50;99.90
12436;DHT22;6282;51.440;6.938;2023-02-15T08:34:37;5.70;99.90
12436;DHT22;6282;51.440;6.938;2023-02-15T08:37:04;5.80;99.90
12436;DHT22;6282;51.440;6.938;2023-02-15T08:41:59;8.30;99.90
12436;DHT22;6282;51.440;6.938;2023-02-15T08:44:26;10.70;99.90
12436;DHT22;6282;51.440;6.938;2023-02-15T08:46:52;12.50;99.90
12436;DHT22;6282;51.440;6.938;2023-02-15T08:49:21;12.00;99.90
12436;DHT22;6282;51.440;6.938;2023-02-15T08:51:49;9.60;99.90
12436;DHT22;6282;51.440;6.938;2023-02-15T08:54:19;10.20;99.90
12436;DHT22;6282;51.440;6.938;2023-02-15T08:56:46;10.40;99.90
12436;DHT22;6282;51.440;6.938;2023-02-15T08:59:14;12.40;99.90
12436;DHT22;6282;51.440;6.938;2023-02-15T09:01:42;12.30;99.90
12436;DHT22;6282;51.440;6.938;2023-02-15T09:04:09;12.10;99.90
12436;DHT22;6282;51.440;6.938;2023-02-15T09:06:38;12.50;99.90
12436;DHT22;6282;51.440;6.938;2023-02-15T09:09:05;12.00;99.90
12436;DHT22;6282;51.440;6.938;2023-02-15T09:11:34;11.70;99.90
12436;DHT22;6282;51.440;6.938;2023-02-15T09:14:03;11.40;99.90
12436;DHT22;6282;51.440;6.938;2023-02-15T09:16:32;8.60;99.90
12436;DHT22;6282;51.440;6.938;2023-02-15T09:18:59;8.70;99.90
12436;DHT22;6282;51.440;6.938;2023-02-15T09:21:28;8.40;99.90
12436;DHT22;6282;51.440;6.938;2023-02-15T09:23:58;9.20;99.90
12436;DHT22;6282;51.440;6.938;2023-02-15T09:26:26;8.80;99.90
12436;DHT22;6282;51.440;6.938;2023-02-15T09:28:55;11.20;99.90
12436;DHT22;6282;51.440;6.938;2023-02-15T09:31:23;10.90;99.90
12436;DHT22;6282;51.440;6.938;2023-02-15T09:33:50;10.90;99.90
12436;DHT22;6282;51.440;6.938;2023-02-15T09:36:19;9.40;99.90
12436;DHT22;6282;51.440;6.938;2023-02-15T09:38:47;8.70;99.90
12436;DHT22;6282;51.440;6.938;2023-02-15T09:41:37;8.80;99.90
12436;DHT22;6282;51.440;6.938;2023-02-15T09:44:15;8.80;99.90
12436;DHT22;6282;51.440;6.938;2023-02-15T09:46:56;8.60;99.90
12436;DHT22;6282;51.440;6.938;2023-02-15T09:49:32;8.70;99.90
12436;DHT22;6282;51.440;6.938;2023-02-15T09:52:25;9.80;99.90
12436;DHT22;6282;51.440;6.938;2023-02-15T09:55:04;8.30;99.90
12436;DHT22;6282;51.440;6.938;2023-02-15T09:57:40;8.50;99.90
12436;DHT22;6282;51.440;6.938;2023-02-15T10:00:18;8.80;99.90
12436;DHT22;6282;51.440;6.938;2023-02-15T10:03:10;9.50;99.90
12436;DHT22;6282;51.440;6.938;2023-02-15T10:05:47;8.90;99.90
12436;DHT22;6282;51.440;6.938;2023-02-15T10:08:46;9.20;99.90
12436;DHT22;6282;51.440;6.938;2023-02-15T10:11:22;9.20;99.90
12436;DHT22;6282;51.440;6.938;2023-02-15T10:17:18;9.30;99.90
12436;DHT22;6282;51.440;6.938;2023-02-15T10:19:53;9.40;99.90
12436;DHT22;6282;51.440;6.938;2023-02-15T10:22:29;9.50;99.90
12436;DHT22;6282;51.440;6.938;2023-02-15T10:25:10;9.60;99.90
12436;DHT22;6282;51.440;6.938;2023-02-15T10:27:45;9.90;99.90
12436;DHT22;6282;51.440;6.938;2023-02-15T10:30:13;9.80;99.90
12436;DHT22;6282;51.440;6.938;2023-02-15T10:32:47;9.60;99.90
12436;DHT22;6282;51.440;6.938;2023-02-15T10:35:22;9.50;99.90
12436;DHT22;6282;51.440;6.938;2023-02-15T10:37:56;9.70;99.90
12436;DHT22;6282;51.440;6.938;2023-02-15T10:40:33;9.70;99.90
12436;DHT22;6282;51.440;6.938;2023-02-15T10:43:19;9.70;99.90
12436;DHT22;6282;51.440;6.938;2023-02-15T10:45:56;9.90;99.90
12436;DHT22;6282;51.440;6.938;2023-02-15T10:48:57;9.90;99.90
12436;DHT22;6282;51.440;6.938;2023-02-15T10:51:34;10.30;99.90
12436;DHT22;6282;51.440;6.938;2023-02-15T10:54:16;9.80;99.90
12436;DHT22;6282;51.440;6.938;2023-02-15T10:56:52;10.20;99.90
12436;DHT22;6282;51.440;6.938;2023-02-15T10:59:34;10.20;99.90
12436;DHT22;6282;51.440;6.938;2023-02-15T11:02:11;10.20;99.90
12436;DHT22;6282;51.440;6.938;2023-02-15T11:04:51;10.40;99.90
12436;DHT22;6282;51.440;6.938;2023-02-15T11:07:23;10.40;99.90
12436;DHT22;6282;51.440;6.938;2023-02-15T11:09:53;10.90;99.90
12436;DHT22;6282;51.440;6.938;2023-02-15T11:12:24;10.50;99.90
12436;DHT22;6282;51.440;6.938;2023-02-15T11:14:58;10.70;99.90
12436;DHT22;6282;51.440;6.938;2023-02-15T11:17:33;10.80;99.90
12436;DHT22;6282;51.440;6.938;2023-02-15T11:20:08;11.00;99.90
12436;DHT22;6282;51.440;6.938;2023-02-15T11:22:41;11.00;99.90
12436;DHT22;6282;51.440;6.938;2023-02-15T11:25:17;11.00;99.90
12436;DHT22;6282;51.440;6.938;2023-02-15T11:27:46;11.00;99.90
12436;DHT22;6282;51.440;6.938;2023-02-15T11:30:17;10.80;99.90
12436;DHT22;6282;51.440;6.938;2023-02-15T11:32:47;11.00;99.90
12436;DHT22;6282;51.440;6.938;2023-02-15T11:35:24;11.20;99.90
12436;DHT22;6282;51.440;6.938;2023-02-15T11:37:57;11.20;99.90
12436;DHT22;6282;51.440;6.938;2023-02-15T11:40:28;11.00;99.90
12436;DHT22;6282;51.440;6.938;2023-02-15T11:42:56;11.10;99.90
12436;DHT22;6282;51.440;6.938;2023-02-15T11:45:28;11.30;99.90
12436;DHT22;6282;51.440;6.938;2023-02-15T11:47:56;11.10;99.90
12436;DHT22;6282;51.440;6.938;2023-02-15T11:50:26;11.10;99.90
12436;DHT22;6282;51.440;6.938;2023-02-15T11:52:59;11.00;99.90
12436;DHT22;6282;51.440;6.938;2023-02-15T11:55:27;11.10;99.90
12436;DHT22;6282;51.440;6.938;2023-02-15T11:57:59;11.10;99.90
12436;DHT22;6282;51.440;6.938;2023-02-15T12:00:33;11.20;99.90
12436;DHT22;6282;51.440;6.938;2023-02-15T12:03:06;11.40;99.90
12436;DHT22;6282;51.440;6.938;2023-02-15T12:05:39;11.50;99.90
12436;DHT22;6282;51.440;6.938;2023-02-15T12:08:12;11.20;99.90
12436;DHT22;6282;51.440;6.938;2023-02-15T12:10:44;11.10;99.90
12436;DHT22;6282;51.440;6.938;2023-02-15T12:13:18;11.30;99.90
12436;DHT22;6282;51.440;6.938;2023-02-15T12:15:47;11.30;99.90
12436;DHT22;6282;51.440;6.938;2023-02-15T12:18:33;11.50;99.90
12436;DHT22;6282;51.440;6.938;2023-02-15T12:21:06;11.50;99.90
12436;DHT22;6282;51.440;6.938;2023-02-15T12:23:39;11.30;99.90
12436;DHT22;6282;51.440;6.938;2023-02-15T12:26:07;11.40;99.90
12436;DHT22;6282;51.440;6.938;2023-02-15T12:28:35;11.50;99.90
12436;DHT22;6282;51.440;6.938;2023-02-15T12:31:06;11.80;99.90
12436;DHT22;6282;51.440;6.938;2023-02-15T12:33:36;11.70;99.90
12436;DHT22;6282;51.440;6.938;2023-02-15T12:36:14;11.90;99.90
12436;DHT22;6282;51.440;6.938;2023-02-15T12:38:42;12.00;99.90
12436;DHT22;6282;51.440;6.938;2023-02-15T12:41:22;12.00;99.90
12436;DHT22;6282;51.440;6.938;2023-02-15T12:44:03;12.00;99.90
12436;DHT22;6282;51.440;6.938;2023-02-15T12:46:30;12.30;99.90
12436;DHT22;6282;51.440;6.938;2023-02-15T12:49:11;12.10;99.90
12436;DHT22;6282;51.440;6.938;2023-02-15T12:51:47;12.40;99.90
12436;DHT22;6282;51.440;6.938;2023-02-15T12:54:35;12.40;99.90
12436;DHT22;6282;51.440;6.938;2023-02-15T12:57:19;12.40;99.90
12436;DHT22;6282;51.440;6.938;2023-02-15T12:59:52;12.70;99.90
12436;DHT22;6282;51.440;6.938;2023-02-15T13:02:23;12.30;99.90
12436;DHT22;6282;51.440;6.938;2023-02-15T13:04:53;12.50;99.90
12436;DHT22;6282;51.440;6.938;2023-02-15T13:07:22;11.90;99.90
12436;DHT22;6282;51.440;6.938;2023-02-15T13:09:50;12.50;99.90
12436;DHT22;6282;51.440;6.938;2023-02-15T13:12:22;12.50;99.90
12436;DHT22;6282;51.440;6.938;2023-02-15T13:14:53;12.50;99.90
12436;DHT22;6282;51.440;6.938;2023-02-15T13:17:25;12.50;99.90
12436;DHT22;6282;51.440;6.938;2023-02-15T13:19:56;12.70;99.90
12436;DHT22;6282;51.440;6.938;2023-02-15T13:22:36;12.40;99.90
12436;DHT22;6282;51.440;6.938;2023-02-15T13:25:11;12.90;99.90
12436;DHT22;6282;51.440;6.938;2023-02-15T13:27:41;12.60;99.90
12436;DHT22;6282;51.440;6.938;2023-02-15T13:30:21;12.70;99.90
12436;DHT22;6282;51.440;6.938;2023-02-15T13:32:51;12.60;99.90
12436;DHT22;6282;51.440;6.938;2023-02-15T13:35:18;12.70;99.90
12436;DHT22;6282;51.440;6.938;2023-02-15T13:37:58;12.70;99.90
12436;DHT22;6282;51.440;6.938;2023-02-15T13:40:33;12.80;99.90
12436;DHT22;6282;51.440;6.938;2023-02-15T13:43:03;12.90;99.90
12436;DHT22;6282;51.440;6.938;2023-02-15T13:45:40;12.60;99.90
12436;DHT22;6282;51.440;6.938;2023-02-15T13:48:22;12.80;99.90
12436;DHT22;6282;51.440;6.938;2023-02-15T13:51:00;12.90;99.90
12436;DHT22;6282;51.440;6.938;2023-02-15T13:53:48;12.80;99.90
12436;DHT22;6282;51.440;6.938;2023-02-15T13:56:27;13.90;99.90
12436;DHT22;6282;51.440;6.938;2023-02-15T13:59:17;13.20;99.90
12436;DHT22;6282;51.440;6.938;2023-02-15T14:01:51;12.80;99.90
12436;DHT22;6282;51.440;6.938;2023-02-15T14:07:49;13.20;99.90
12436;DHT22;6282;51.440;6.938;2023-02-15T14:10:42;13.00;99.90
12436;DHT22;6282;51.440;6.938;2023-02-15T14:16:22;13.10;99.90
12436;DHT22;6282;51.440;6.938;2023-02-15T14:18:57;13.20;99.90
12436;DHT22;6282;51.440;6.938;2023-02-15T14:21:30;13.10;99.90
12436;DHT22;6282;51.440;6.938;2023-02-15T14:24:09;12.80;99.90
12436;DHT22;6282;51.440;6.938;2023-02-15T14:26:47;13.10;99.90
12436;DHT22;6282;51.440;6.938;2023-02-15T14:29:23;12.90;99.90
12436;DHT22;6282;51.440;6.938;2023-02-15T14:31:56;12.90;99.90
12436;DHT22;6282;51.440;6.938;2023-02-15T14:34:27;12.80;99.90
12436;DHT22;6282;51.440;6.938;2023-02-15T14:36:57;12.80;99.90
12436;DHT22;6282;51.440;6.938;2023-02-15T14:39:31;12.90;99.90
12436;DHT22;6282;51.440;6.938;2023-02-15T14:42:24;12.80;99.90
12436;DHT22;6282;51.440;6.938;2023-02-15T14:44:56;12.70;99.90
12436;DHT22;6282;51.440;6.938;2023-02-15T14:47:31;12.70;99.90
12436;DHT22;6282;51.440;6.938;2023-02-15T14:53:17;12.30;99.90
12436;DHT22;6282;51.440;6.938;2023-02-15T14:56:05;12.60;99.90
12436;DHT22;6282;51.440;6.938;2023-02-15T14:58:35;12.50;99.90
12436;DHT22;6282;51.440;6.938;2023-02-15T15:01:05;12.60;99.90
12436;DHT22;6282;51.440;6.938;2023-02-15T15:03:32;12.60;99.90
12436;DHT22;6282;51.440;6.938;2023-02-15T15:06:02;12.70;99.90
12436;DHT22;6282;51.440;6.938;2023-02-15T15:08:34;12.40;99.90
12436;DHT22;6282;51.440;6.938;2023-02-15T15:11:43;12.60;99.90
12436;DHT22;6282;51.440;6.938;2023-02-15T15:14:41;12.50;99.90
12436;DHT22;6282;51.440;6.938;2023-02-15T15:17:11;12.50;99.90
12436;DHT22;6282;51.440;6.938;2023-02-15T15:20:03;12.60;99.90
12436;DHT22;6282;51.440;6.938;2023-02-15T15:22:34;12.30;99.90
12436;DHT22;6282;51.440;6.938;2023-02-15T15:25:01;12.60;99.90
12436;DHT22;6282;51.440;6.938;2023-02-15T15:27:40;12.50;99.90
12436;DHT22;6282;51.440;6.938;2023-02-15T15:42:32;12.60;99.90
12436;DHT22;6282;51.440;6.938;2023-02-15T15:48:27;12.30;99.90
12436;DHT22;6282;51.440;6.938;2023-02-15T15:50:59;12.00;99.90
12436;DHT22;6282;51.440;6.938;2023-02-15T15:53:29;12.20;99.90
12436;DHT22;6282;51.440;6.938;2023-02-15T15:56:00;12.20;99.90
12436;DHT22;6282;51.440;6.938;2023-02-15T15:58:30;12.20;99.90
12436;DHT22;6282;51.440;6.938;2023-02-15T16:01:01;12.20;99.90
12436;DHT22;6282;51.440;6.938;2023-02-15T16:03:30;12.00;99.90
12436;DHT22;6282;51.440;6.938;2023-02-15T16:05:58;12.00;99.90
12436;DHT22;6282;51.440;6.938;2023-02-15T16:08:28;11.90;99.90
12436;DHT22;6282;51.440;6.938;2023-02-15T16:10:55;11.80;99.90
12436;DHT22;6282;51.440;6.938;2023-02-15T16:13:23;11.60;99.90
12436;DHT22;6282;51.440;6.938;2023-02-15T16:15:52;11.60;99.90
12436;DHT22;6282;51.440;6.938;2023-02-15T16:18:23;11.50;99.90
12436;DHT22;6282;51.440;6.938;2023-02-15T16:20:53;11.40;99.90
12436;DHT22;6282;51.440;6.938;2023-02-15T16:23:48;11.10;99.90
12436;DHT22;6282;51.440;6.938;2023-02-15T16:26:26;11.30;99.90
12436;DHT22;6282;51.440;6.938;2023-02-15T16:28:57;11.40;99.90
12436;DHT22;6282;51.440;6.938;2023-02-15T16:31:24;11.40;99.90
12436;DHT22;6282;51.440;6.938;2023-02-15T16:33:53;11.30;99.90
12436;DHT22;6282;51.440;6.938;2023-02-15T16:36:22;11.10;99.90
12436;DHT22;6282;51.440;6.938;2023-02-15T16:39:16;11.20;99.90
12436;DHT22;6282;51.440;6.938;2023-02-15T16:41:44;10.90;99.90
12436;DHT22;6282;51.440;6.938;2023-02-15T16:44:15;11.10;99.90
12436;DHT22;6282;51.440;6.938;2023-02-15T16:46:45;11.20;99.90
12436;DHT22;6282;51.440;6.938;2023-02-15T16:49:16;10.80;99.90
12436;DHT22;6282;51.440;6.938;2023-02-15T16:51:44;10.90;99.90
12436;DHT22;6282;51.440;6.938;2023-02-15T16:54:18;10.80;99.90
12436;DHT22;6282;51.440;6.938;2023-02-15T16:56:46;10.70;99.90
12436;DHT22;6282;51.440;6.938;2023-02-15T16:59:19;10.60;99.90
12436;DHT22;6282;51.440;6.938;2023-02-15T17:01:48;10.60;99.90
12436;DHT22;6282;51.440;6.938;2023-02-15T17:04:28;10.40;99.90
12436;DHT22;6282;51.440;6.938;2023-02-15T17:07:02;10.00;99.90
12436;DHT22;6282;51.440;6.938;2023-02-15T17:09:31;10.10;99.90
12436;DHT22;6282;51.440;6.938;2023-02-15T17:12:00;10.00;99.90
12436;DHT22;6282;51.440;6.938;2023-02-15T17:14:32;10.20;99.90
12436;DHT22;6282;51.440;6.938;2023-02-15T17:17:06;10.10;99.90
12436;DHT22;6282;51.440;6.938;2023-02-15T17:19:43;10.20;99.90
12436;DHT22;6282;51.440;6.938;2023-02-15T17:22:18;10.10;99.90
12436;DHT22;6282;51.440;6.938;2023-02-15T17:24:48;10.20;99.90
12436;DHT22;6282;51.440;6.938;2023-02-15T17:27:18;10.20;99.90
12436;DHT22;6282;51.440;6.938;2023-02-15T17:29:49;10.10;99.90
12436;DHT22;6282;51.440;6.938;2023-02-15T17:32:19;10.20;99.90
12436;DHT22;6282;51.440;6.938;2023-02-15T17:34:58;10.10;99.90
12436;DHT22;6282;51.440;6.938;2023-02-15T17:37:30;10.10;99.90
12436;DHT22;6282;51.440;6.938;2023-02-15T17:40:00;10.20;99.90
12436;DHT22;6282;51.440;6.938;2023-02-15T17:42:27;10.00;99.90
12436;DHT22;6282;51.440;6.938;2023-02-15T17:47:23;9.90;99.90
12436;DHT22;6282;51.440;6.938;2023-02-15T17:49:52;9.80;99.90
12436;DHT22;6282;51.440;6.938;2023-02-15T17:52:19;10.00;99.90
12436;DHT22;6282;51.440;6.938;2023-02-15T17:54:46;10.00;99.90
12436;DHT22;6282;51.440;6.938;2023-02-15T17:57:32;9.60;99.90
12436;DHT22;6282;51.440;6.938;2023-02-15T17:59:59;9.70;99.90
12436;DHT22;6282;51.440;6.938;2023-02-15T18:02:43;10.00;99.90
12436;DHT22;6282;51.440;6.938;2023-02-15T18:05:27;9.40;99.90
12436;DHT22;6282;51.440;6.938;2023-02-15T18:08:13;9.60;99.90
12436;DHT22;6282;51.440;6.938;2023-02-15T18:10:59;9.40;99.90
12436;DHT22;6282;51.440;6.938;2023-02-15T18:13:46;9.40;99.90
12436;DHT22;6282;51.440;6.938;2023-02-15T18:16:14;9.40;99.90
12436;DHT22;6282;51.440;6.938;2023-02-15T18:18:42;9.30;99.90
12436;DHT22;6282;51.440;6.938;2023-02-15T18:21:10;9.60;99.90
12436;DHT22;6282;51.440;6.938;2023-02-15T18:23:37;9.70;99.90